sensor_id;sensor_type;location;lat;lon;timestamp;P1;durP1;ratioP1;P2;durP2;ratioP2
39738;SDS011;25422;48.286;8.484;2023-04-06T00:01:18;11.32;;;8.35;;
39738;SDS011;25422;48.286;8.484;2023-04-06T00:03:43;15.77;;;8.90;;
39738;SDS011;25422;48.286;8.484;2023-04-06T00:06:09;13.20;;;8.82;;
39738;SDS011;25422;48.286;8.484;2023-04-06T00:08:34;11.95;;;8.20;;
39738;SDS011;25422;48.286;8.484;2023-04-06T00:10:59;16.70;;;8.60;;
39738;SDS011;25422;48.286;8.484;2023-04-06T00:13:25;16.65;;;8.77;;
39738;SDS011;25422;48.286;8.484;2023-04-06T00:15:51;14.27;;;9.15;;
39738;SDS011;25422;48.286;8.484;2023-04-06T00:18:16;13.10;;;8.23;;
39738;SDS011;25422;48.286;8.484;2023-04-06T00:20:41;14.00;;;8.40;;
39738;SDS011;25422;48.286;8.484;2023-04-06T00:23:07;14.80;;;9.13;;
39738;SDS011;25422;48.286;8.484;2023-04-06T00:25:32;12.75;;;8.60;;
39738;SDS011;25422;48.286;8.484;2023-04-06T00:27:57;12.30;;;8.73;;
39738;SDS011;25422;48.286;8.484;2023-04-06T00:30:23;12.63;;;8.32;;
39738;SDS011;25422;48.286;8.484;2023-04-06T00:32:49;14.30;;;9.65;;
39738;SDS011;25422;48.286;8.484;2023-04-06T00:35:15;17.48;;;10.10;;
39738;SDS011;25422;48.286;8.484;2023-04-06T00:37:40;20.00;;;11.40;;
39738;SDS011;25422;48.286;8.484;2023-04-06T00:40:06;15.85;;;9.93;;
39738;SDS011;25422;48.286;8.484;2023-04-06T00:42:32;17.48;;;10.52;;
39738;SDS011;25422;48.286;8.484;2023-04-06T00:44:59;13.98;;;9.90;;
39738;SDS011;25422;48.286;8.484;2023-04-06T00:47:25;16.88;;;10.27;;
39738;SDS011;25422;48.286;8.484;2023-04-06T00:49:51;15.68;;;9.00;;
39738;SDS011;25422;48.286;8.484;2023-04-06T00:52:18;17.27;;;9.05;;
39738;SDS011;25422;48.286;8.484;2023-04-06T00:54:46;14.40;;;9.25;;
39738;SDS011;25422;48.286;8.484;2023-04-06T00:57:12;18.15;;;9.80;;
39738;SDS011;25422;48.286;8.484;2023-04-06T00:59:39;14.30;;;9.95;;
39738;SDS011;25422;48.286;8.484;2023-04-06T01:02:08;15.15;;;9.38;;
39738;SDS011;25422;48.286;8.484;2023-04-06T01:04:40;15.52;;;10.10;;
39738;SDS011;25422;48.286;8.484;2023-04-06T01:07:10;15.80;;;10.32;;
39738;SDS011;25422;48.286;8.484;2023-04-06T01:09:43;15.50;;;9.70;;
39738;SDS011;25422;48.286;8.484;2023-04-06T01:12:16;15.25;;;9.95;;
39738;SDS011;25422;48.286;8.484;2023-04-06T01:14:42;14.80;;;10.00;;
39738;SDS011;25422;48.286;8.484;2023-04-06T01:17:08;14.48;;;9.55;;
39738;SDS011;25422;48.286;8.484;2023-04-06T01:19:33;15.15;;;9.55;;
39738;SDS011;25422;48.286;8.484;2023-04-06T01:21:59;17.88;;;10.52;;
39738;SDS011;25422;48.286;8.484;2023-04-06T01:24:30;16.70;;;10.48;;
39738;SDS011;25422;48.286;8.484;2023-04-06T01:27:13;19.20;;;10.68;;
39738;SDS011;25422;48.286;8.484;2023-04-06T01:32:41;17.48;;;9.82;;
39738;SDS011;25422;48.286;8.484;2023-04-06T01:35:08;15.48;;;10.15;;
39738;SDS011;25422;48.286;8.484;2023-04-06T01:37:40;18.45;;;10.30;;
39738;SDS011;25422;48.286;8.484;2023-04-06T01:40:09;20.02;;;10.57;;
39738;SDS011;25422;48.286;8.484;2023-04-06T01:42:43;17.50;;;10.77;;
39738;SDS011;25422;48.286;8.484;2023-04-06T01:45:12;19.30;;;11.10;;
39738;SDS011;25422;48.286;8.484;2023-04-06T01:47:38;15.95;;;11.15;;
39738;SDS011;25422;48.286;8.484;2023-04-06T01:50:04;15.70;;;10.10;;
39738;SDS011;25422;48.286;8.484;2023-04-06T01:52:34;19.73;;;11.55;;
39738;SDS011;25422;48.286;8.484;2023-04-06T01:54:59;15.80;;;10.80;;
39738;SDS011;25422;48.286;8.484;2023-04-06T01:57:42;16.45;;;11.13;;
39738;SDS011;25422;48.286;8.484;2023-04-06T02:00:15;18.90;;;11.15;;
39738;SDS011;25422;48.286;8.484;2023-04-06T02:02:47;19.45;;;11.88;;
39738;SDS011;25422;48.286;8.484;2023-04-06T02:05:19;16.23;;;10.77;;
39738;SDS011;25422;48.286;8.484;2023-04-06T02:07:45;20.02;;;11.93;;
39738;SDS011;25422;48.286;8.484;2023-04-06T02:10:14;16.83;;;11.52;;
39738;SDS011;25422;48.286;8.484;2023-04-06T02:12:41;20.70;;;11.68;;
39738;SDS011;25422;48.286;8.484;2023-04-06T02:15:10;19.67;;;12.15;;
39738;SDS011;25422;48.286;8.484;2023-04-06T02:17:38;19.85;;;12.20;;
39738;SDS011;25422;48.286;8.484;2023-04-06T02:20:04;15.40;;;11.32;;
39738;SDS011;25422;48.286;8.484;2023-04-06T02:22:30;18.20;;;12.07;;
39738;SDS011;25422;48.286;8.484;2023-04-06T02:24:56;21.40;;;12.50;;
39738;SDS011;25422;48.286;8.484;2023-04-06T02:27:21;20.52;;;11.50;;
39738;SDS011;25422;48.286;8.484;2023-04-06T02:29:47;19.90;;;12.05;;
39738;SDS011;25422;48.286;8.484;2023-04-06T02:32:14;17.55;;;12.05;;
39738;SDS011;25422;48.286;8.484;2023-04-06T02:34:39;17.27;;;11.43;;
39738;SDS011;25422;48.286;8.484;2023-04-06T02:37:05;19.60;;;11.40;;
39738;SDS011;25422;48.286;8.484;2023-04-06T02:39:30;18.90;;;12.48;;
39738;SDS011;25422;48.286;8.484;2023-04-06T02:41:56;18.58;;;11.60;;
39738;SDS011;25422;48.286;8.484;2023-04-06T02:44:23;19.27;;;11.50;;
39738;SDS011;25422;48.286;8.484;2023-04-06T02:46:49;18.58;;;11.88;;
39738;SDS011;25422;48.286;8.484;2023-04-06T02:49:15;19.67;;;11.25;;
39738;SDS011;25422;48.286;8.484;2023-04-06T02:51:40;21.83;;;13.15;;
39738;SDS011;25422;48.286;8.484;2023-04-06T02:54:23;20.88;;;11.30;;
39738;SDS011;25422;48.286;8.484;2023-04-06T02:56:48;23.73;;;12.38;;
39738;SDS011;25422;48.286;8.484;2023-04-06T02:59:14;19.33;;;12.43;;
39738;SDS011;25422;48.286;8.484;2023-04-06T03:01:46;18.92;;;12.85;;
39738;SDS011;25422;48.286;8.484;2023-04-06T03:04:11;22.00;;;12.65;;
39738;SDS011;25422;48.286;8.484;2023-04-06T03:06:37;21.50;;;12.55;;
39738;SDS011;25422;48.286;8.484;2023-04-06T03:09:13;17.55;;;11.85;;
39738;SDS011;25422;48.286;8.484;2023-04-06T03:11:42;16.27;;;11.68;;
39738;SDS011;25422;48.286;8.484;2023-04-06T03:14:07;18.40;;;11.98;;
39738;SDS011;25422;48.286;8.484;2023-04-06T03:16:33;18.00;;;11.65;;
39738;SDS011;25422;48.286;8.484;2023-04-06T03:19:00;16.08;;;11.38;;
39738;SDS011;25422;48.286;8.484;2023-04-06T03:21:26;17.52;;;11.30;;
39738;SDS011;25422;48.286;8.484;2023-04-06T03:23:52;18.77;;;11.38;;
39738;SDS011;25422;48.286;8.484;2023-04-06T03:26:18;19.20;;;12.85;;
39738;SDS011;25422;48.286;8.484;2023-04-06T03:28:43;19.55;;;11.27;;
39738;SDS011;25422;48.286;8.484;2023-04-06T03:31:09;19.98;;;12.57;;
39738;SDS011;25422;48.286;8.484;2023-04-06T03:34:04;19.58;;;12.15;;
39738;SDS011;25422;48.286;8.484;2023-04-06T03:36:32;18.77;;;11.93;;
39738;SDS011;25422;48.286;8.484;2023-04-06T03:38:59;18.45;;;12.02;;
39738;SDS011;25422;48.286;8.484;2023-04-06T03:41:25;21.15;;;12.45;;
39738;SDS011;25422;48.286;8.484;2023-04-06T03:44:14;20.80;;;12.00;;
39738;SDS011;25422;48.286;8.484;2023-04-06T03:46:39;23.27;;;13.10;;
39738;SDS011;25422;48.286;8.484;2023-04-06T03:49:06;23.60;;;13.98;;
39738;SDS011;25422;48.286;8.484;2023-04-06T03:51:32;22.05;;;13.02;;
39738;SDS011;25422;48.286;8.484;2023-04-06T03:53:57;21.13;;;13.45;;
39738;SDS011;25422;48.286;8.484;2023-04-06T03:56:23;19.08;;;12.40;;
39738;SDS011;25422;48.286;8.484;2023-04-06T03:58:48;19.20;;;11.88;;
39738;SDS011;25422;48.286;8.484;2023-04-06T04:01:19;21.67;;;12.63;;
39738;SDS011;25422;48.286;8.484;2023-04-06T04:03:44;20.33;;;12.82;;
39738;SDS011;25422;48.286;8.484;2023-04-06T04:06:13;22.75;;;13.65;;
39738;SDS011;25422;48.286;8.484;2023-04-06T04:08:40;38.55;;;19.73;;
39738;SDS011;25422;48.286;8.484;2023-04-06T04:11:06;27.85;;;15.07;;
39738;SDS011;25422;48.286;8.484;2023-04-06T04:13:32;22.35;;;13.35;;
39738;SDS011;25422;48.286;8.484;2023-04-06T04:15:58;20.80;;;12.40;;
39738;SDS011;25422;48.286;8.484;2023-04-06T04:18:25;19.30;;;12.07;;
39738;SDS011;25422;48.286;8.484;2023-04-06T04:20:50;36.15;;;12.45;;
39738;SDS011;25422;48.286;8.484;2023-04-06T04:23:19;13.53;;;8.47;;
39738;SDS011;25422;48.286;8.484;2023-04-06T04:25:44;22.70;;;12.55;;
39738;SDS011;25422;48.286;8.484;2023-04-06T04:28:10;25.20;;;11.93;;
39738;SDS011;25422;48.286;8.484;2023-04-06T04:30:37;22.83;;;12.75;;
39738;SDS011;25422;48.286;8.484;2023-04-06T04:33:07;20.65;;;12.77;;
39738;SDS011;25422;48.286;8.484;2023-04-06T04:35:32;21.30;;;13.07;;
39738;SDS011;25422;48.286;8.484;2023-04-06T04:37:58;23.50;;;13.05;;
39738;SDS011;25422;48.286;8.484;2023-04-06T04:40:24;25.27;;;13.20;;
39738;SDS011;25422;48.286;8.484;2023-04-06T04:42:56;20.73;;;12.20;;
39738;SDS011;25422;48.286;8.484;2023-04-06T04:45:27;21.17;;;12.48;;
39738;SDS011;25422;48.286;8.484;2023-04-06T04:47:52;23.83;;;13.20;;
39738;SDS011;25422;48.286;8.484;2023-04-06T04:50:19;20.73;;;12.95;;
39738;SDS011;25422;48.286;8.484;2023-04-06T04:52:48;20.42;;;12.85;;
39738;SDS011;25422;48.286;8.484;2023-04-06T04:55:18;21.98;;;13.02;;
39738;SDS011;25422;48.286;8.484;2023-04-06T04:57:47;22.23;;;12.95;;
39738;SDS011;25422;48.286;8.484;2023-04-06T05:00:13;19.70;;;12.38;;
39738;SDS011;25422;48.286;8.484;2023-04-06T05:02:42;20.35;;;12.63;;
39738;SDS011;25422;48.286;8.484;2023-04-06T05:05:12;19.88;;;12.32;;
39738;SDS011;25422;48.286;8.484;2023-04-06T05:07:39;21.13;;;12.68;;
39738;SDS011;25422;48.286;8.484;2023-04-06T05:10:07;21.65;;;12.90;;
39738;SDS011;25422;48.286;8.484;2023-04-06T05:12:39;25.08;;;13.30;;
39738;SDS011;25422;48.286;8.484;2023-04-06T05:15:07;23.90;;;12.77;;
39738;SDS011;25422;48.286;8.484;2023-04-06T05:17:33;20.25;;;12.60;;
39738;SDS011;25422;48.286;8.484;2023-04-06T05:19:59;22.73;;;13.75;;
39738;SDS011;25422;48.286;8.484;2023-04-06T05:22:26;21.65;;;13.07;;
39738;SDS011;25422;48.286;8.484;2023-04-06T05:25:01;26.92;;;14.57;;
39738;SDS011;25422;48.286;8.484;2023-04-06T05:27:28;21.65;;;13.38;;
39738;SDS011;25422;48.286;8.484;2023-04-06T05:29:58;21.80;;;13.93;;
39738;SDS011;25422;48.286;8.484;2023-04-06T05:32:26;22.55;;;13.48;;
39738;SDS011;25422;48.286;8.484;2023-04-06T05:34:52;22.50;;;13.45;;
39738;SDS011;25422;48.286;8.484;2023-04-06T05:37:18;22.48;;;12.73;;
39738;SDS011;25422;48.286;8.484;2023-04-06T05:39:44;22.48;;;13.07;;
39738;SDS011;25422;48.286;8.484;2023-04-06T05:42:10;20.02;;;12.90;;
39738;SDS011;25422;48.286;8.484;2023-04-06T05:44:56;20.60;;;12.85;;
39738;SDS011;25422;48.286;8.484;2023-04-06T05:47:22;18.45;;;11.82;;
39738;SDS011;25422;48.286;8.484;2023-04-06T05:49:53;16.95;;;11.45;;
39738;SDS011;25422;48.286;8.484;2023-04-06T05:52:30;19.52;;;11.35;;
39738;SDS011;25422;48.286;8.484;2023-04-06T05:54:55;15.85;;;11.18;;
39738;SDS011;25422;48.286;8.484;2023-04-06T05:57:23;15.70;;;10.90;;
39738;SDS011;25422;48.286;8.484;2023-04-06T05:59:49;16.75;;;11.00;;
39738;SDS011;25422;48.286;8.484;2023-04-06T06:02:15;16.50;;;10.85;;
39738;SDS011;25422;48.286;8.484;2023-04-06T06:04:43;13.33;;;9.33;;
39738;SDS011;25422;48.286;8.484;2023-04-06T06:07:09;15.23;;;9.45;;
39738;SDS011;25422;48.286;8.484;2023-04-06T06:09:41;15.82;;;9.40;;
39738;SDS011;25422;48.286;8.484;2023-04-06T06:12:18;16.05;;;10.20;;
39738;SDS011;25422;48.286;8.484;2023-04-06T06:14:46;12.65;;;9.32;;
39738;SDS011;25422;48.286;8.484;2023-04-06T06:17:12;13.13;;;9.13;;
39738;SDS011;25422;48.286;8.484;2023-04-06T06:19:39;15.18;;;9.02;;
39738;SDS011;25422;48.286;8.484;2023-04-06T06:22:06;11.20;;;8.45;;
39738;SDS011;25422;48.286;8.484;2023-04-06T06:24:35;14.10;;;9.27;;
39738;SDS011;25422;48.286;8.484;2023-04-06T06:27:01;14.52;;;9.60;;
39738;SDS011;25422;48.286;8.484;2023-04-06T06:31:58;15.80;;;10.02;;
39738;SDS011;25422;48.286;8.484;2023-04-06T06:34:23;15.30;;;9.52;;
39738;SDS011;25422;48.286;8.484;2023-04-06T06:36:49;14.38;;;10.38;;
39738;SDS011;25422;48.286;8.484;2023-04-06T06:39:16;17.48;;;10.13;;
39738;SDS011;25422;48.286;8.484;2023-04-06T06:41:42;17.27;;;10.10;;
39738;SDS011;25422;48.286;8.484;2023-04-06T06:44:07;15.52;;;9.45;;
39738;SDS011;25422;48.286;8.484;2023-04-06T06:46:34;20.20;;;10.10;;
39738;SDS011;25422;48.286;8.484;2023-04-06T06:48:59;15.40;;;9.80;;
39738;SDS011;25422;48.286;8.484;2023-04-06T06:51:25;12.90;;;8.73;;
39738;SDS011;25422;48.286;8.484;2023-04-06T06:53:51;14.65;;;9.90;;
39738;SDS011;25422;48.286;8.484;2023-04-06T06:56:16;13.90;;;9.43;;
39738;SDS011;25422;48.286;8.484;2023-04-06T06:58:42;11.88;;;8.75;;
39738;SDS011;25422;48.286;8.484;2023-04-06T07:01:08;11.05;;;8.90;;
39738;SDS011;25422;48.286;8.484;2023-04-06T07:03:34;10.05;;;8.05;;
39738;SDS011;25422;48.286;8.484;2023-04-06T07:05:59;10.77;;;8.32;;
39738;SDS011;25422;48.286;8.484;2023-04-06T07:08:25;14.45;;;9.90;;
39738;SDS011;25422;48.286;8.484;2023-04-06T07:10:51;13.13;;;9.27;;
39738;SDS011;25422;48.286;8.484;2023-04-06T07:13:23;15.73;;;9.50;;
39738;SDS011;25422;48.286;8.484;2023-04-06T07:15:51;14.80;;;9.07;;
39738;SDS011;25422;48.286;8.484;2023-04-06T07:18:17;16.77;;;10.05;;
39738;SDS011;25422;48.286;8.484;2023-04-06T07:20:44;18.67;;;10.18;;
39738;SDS011;25422;48.286;8.484;2023-04-06T07:23:10;14.32;;;10.27;;
39738;SDS011;25422;48.286;8.484;2023-04-06T07:25:35;16.52;;;9.40;;
39738;SDS011;25422;48.286;8.484;2023-04-06T07:28:01;16.08;;;9.98;;
39738;SDS011;25422;48.286;8.484;2023-04-06T07:30:28;18.60;;;9.95;;
39738;SDS011;25422;48.286;8.484;2023-04-06T07:32:54;15.10;;;9.32;;
39738;SDS011;25422;48.286;8.484;2023-04-06T07:35:25;14.40;;;9.57;;
39738;SDS011;25422;48.286;8.484;2023-04-06T07:37:52;14.23;;;9.02;;
39738;SDS011;25422;48.286;8.484;2023-04-06T07:40:18;17.90;;;9.40;;
39738;SDS011;25422;48.286;8.484;2023-04-06T07:42:44;13.85;;;8.70;;
39738;SDS011;25422;48.286;8.484;2023-04-06T07:45:10;16.75;;;8.27;;
39738;SDS011;25422;48.286;8.484;2023-04-06T07:47:36;12.93;;;8.23;;
39738;SDS011;25422;48.286;8.484;2023-04-06T07:50:02;11.32;;;7.13;;
39738;SDS011;25422;48.286;8.484;2023-04-06T07:52:28;10.38;;;7.35;;
39738;SDS011;25422;48.286;8.484;2023-04-06T07:54:54;10.40;;;6.78;;
39738;SDS011;25422;48.286;8.484;2023-04-06T07:57:19;9.95;;;6.57;;
39738;SDS011;25422;48.286;8.484;2023-04-06T07:59:45;8.68;;;5.72;;
39738;SDS011;25422;48.286;8.484;2023-04-06T08:02:10;7.47;;;5.70;;
39738;SDS011;25422;48.286;8.484;2023-04-06T08:04:35;6.97;;;5.30;;
39738;SDS011;25422;48.286;8.484;2023-04-06T08:07:01;7.55;;;5.68;;
39738;SDS011;25422;48.286;8.484;2023-04-06T08:09:26;8.32;;;5.60;;
39738;SDS011;25422;48.286;8.484;2023-04-06T08:11:52;6.18;;;5.53;;
39738;SDS011;25422;48.286;8.484;2023-04-06T08:14:18;5.80;;;4.30;;
39738;SDS011;25422;48.286;8.484;2023-04-06T08:16:43;6.80;;;4.03;;
39738;SDS011;25422;48.286;8.484;2023-04-06T08:19:08;9.38;;;5.93;;
39738;SDS011;25422;48.286;8.484;2023-04-06T08:21:37;7.68;;;5.65;;
39738;SDS011;25422;48.286;8.484;2023-04-06T08:24:02;7.30;;;5.33;;
39738;SDS011;25422;48.286;8.484;2023-04-06T08:26:28;8.55;;;5.75;;
39738;SDS011;25422;48.286;8.484;2023-04-06T08:28:54;7.38;;;5.28;;
39738;SDS011;25422;48.286;8.484;2023-04-06T08:31:19;5.15;;;4.43;;
39738;SDS011;25422;48.286;8.484;2023-04-06T08:33:45;6.47;;;4.65;;
39738;SDS011;25422;48.286;8.484;2023-04-06T08:36:11;6.55;;;4.60;;
39738;SDS011;25422;48.286;8.484;2023-04-06T08:38:38;6.97;;;4.50;;
39738;SDS011;25422;48.286;8.484;2023-04-06T08:41:11;6.47;;;4.60;;
39738;SDS011;25422;48.286;8.484;2023-04-06T08:43:41;6.88;;;4.75;;
39738;SDS011;25422;48.286;8.484;2023-04-06T08:46:08;6.57;;;4.68;;
39738;SDS011;25422;48.286;8.484;2023-04-06T08:48:35;9.02;;;5.20;;
39738;SDS011;25422;48.286;8.484;2023-04-06T08:51:01;6.93;;;5.40;;
39738;SDS011;25422;48.286;8.484;2023-04-06T08:53:27;8.20;;;5.82;;
39738;SDS011;25422;48.286;8.484;2023-04-06T08:55:53;6.85;;;5.07;;
39738;SDS011;25422;48.286;8.484;2023-04-06T08:58:20;10.63;;;5.25;;
39738;SDS011;25422;48.286;8.484;2023-04-06T09:00:47;7.97;;;5.13;;
39738;SDS011;25422;48.286;8.484;2023-04-06T09:03:13;8.70;;;5.45;;
39738;SDS011;25422;48.286;8.484;2023-04-06T09:05:39;6.68;;;5.25;;
39738;SDS011;25422;48.286;8.484;2023-04-06T09:08:05;7.82;;;5.53;;
39738;SDS011;25422;48.286;8.484;2023-04-06T09:10:31;7.05;;;5.40;;
39738;SDS011;25422;48.286;8.484;2023-04-06T09:13:06;6.80;;;5.25;;
39738;SDS011;25422;48.286;8.484;2023-04-06T09:15:33;7.15;;;5.47;;
39738;SDS011;25422;48.286;8.484;2023-04-06T09:17:58;9.73;;;5.60;;
39738;SDS011;25422;48.286;8.484;2023-04-06T09:20:25;7.70;;;5.50;;
39738;SDS011;25422;48.286;8.484;2023-04-06T09:22:52;8.50;;;5.75;;
39738;SDS011;25422;48.286;8.484;2023-04-06T09:25:19;6.55;;;5.20;;
39738;SDS011;25422;48.286;8.484;2023-04-06T09:27:48;6.32;;;5.15;;
39738;SDS011;25422;48.286;8.484;2023-04-06T09:30:22;6.68;;;5.20;;
39738;SDS011;25422;48.286;8.484;2023-04-06T09:32:50;7.00;;;5.10;;
39738;SDS011;25422;48.286;8.484;2023-04-06T09:35:20;8.10;;;5.22;;
39738;SDS011;25422;48.286;8.484;2023-04-06T09:37:47;7.43;;;5.22;;
39738;SDS011;25422;48.286;8.484;2023-04-06T09:40:15;6.20;;;5.07;;
39738;SDS011;25422;48.286;8.484;2023-04-06T09:42:42;7.63;;;5.45;;
39738;SDS011;25422;48.286;8.484;2023-04-06T09:45:14;6.50;;;4.90;;
39738;SDS011;25422;48.286;8.484;2023-04-06T09:47:40;6.07;;;5.10;;
39738;SDS011;25422;48.286;8.484;2023-04-06T09:50:08;6.80;;;4.53;;
39738;SDS011;25422;48.286;8.484;2023-04-06T09:52:57;9.25;;;5.07;;
39738;SDS011;25422;48.286;8.484;2023-04-06T09:55:26;7.72;;;5.10;;
39738;SDS011;25422;48.286;8.484;2023-04-06T10:00:32;6.85;;;5.00;;
39738;SDS011;25422;48.286;8.484;2023-04-06T10:03:19;8.10;;;5.35;;
39738;SDS011;25422;48.286;8.484;2023-04-06T10:05:55;6.43;;;5.10;;
39738;SDS011;25422;48.286;8.484;2023-04-06T10:08:24;6.38;;;4.57;;
39738;SDS011;25422;48.286;8.484;2023-04-06T10:10:53;6.00;;;5.05;;
39738;SDS011;25422;48.286;8.484;2023-04-06T10:13:20;5.70;;;4.80;;
39738;SDS011;25422;48.286;8.484;2023-04-06T10:15:46;5.72;;;4.72;;
39738;SDS011;25422;48.286;8.484;2023-04-06T10:18:12;7.03;;;4.95;;
39738;SDS011;25422;48.286;8.484;2023-04-06T10:20:42;8.15;;;4.80;;
39738;SDS011;25422;48.286;8.484;2023-04-06T10:26:19;6.47;;;4.82;;
39738;SDS011;25422;48.286;8.484;2023-04-06T10:28:40;7.90;;;5.22;;
39738;SDS011;25422;48.286;8.484;2023-04-06T10:31:06;8.45;;;4.75;;
39738;SDS011;25422;48.286;8.484;2023-04-06T10:33:32;6.63;;;4.68;;
39738;SDS011;25422;48.286;8.484;2023-04-06T10:36:08;6.97;;;4.80;;
39738;SDS011;25422;48.286;8.484;2023-04-06T10:38:36;6.95;;;5.05;;
39738;SDS011;25422;48.286;8.484;2023-04-06T10:41:06;6.05;;;4.75;;
39738;SDS011;25422;48.286;8.484;2023-04-06T10:43:35;6.45;;;4.90;;
39738;SDS011;25422;48.286;8.484;2023-04-06T10:46:03;9.00;;;4.90;;
39738;SDS011;25422;48.286;8.484;2023-04-06T10:48:36;8.50;;;5.07;;
39738;SDS011;25422;48.286;8.484;2023-04-06T10:51:12;6.32;;;4.45;;
39738;SDS011;25422;48.286;8.484;2023-04-06T10:53:40;6.75;;;4.88;;
39738;SDS011;25422;48.286;8.484;2023-04-06T10:56:10;5.90;;;4.22;;
39738;SDS011;25422;48.286;8.484;2023-04-06T11:01:02;5.45;;;4.13;;
39738;SDS011;25422;48.286;8.484;2023-04-06T11:03:28;5.72;;;4.80;;
39738;SDS011;25422;48.286;8.484;2023-04-06T11:05:54;6.35;;;4.70;;
39738;SDS011;25422;48.286;8.484;2023-04-06T11:08:27;8.55;;;4.30;;
39738;SDS011;25422;48.286;8.484;2023-04-06T11:11:07;8.45;;;4.50;;
39738;SDS011;25422;48.286;8.484;2023-04-06T11:13:38;6.70;;;4.20;;
39738;SDS011;25422;48.286;8.484;2023-04-06T11:16:03;6.22;;;4.55;;
39738;SDS011;25422;48.286;8.484;2023-04-06T11:18:29;7.72;;;4.75;;
39738;SDS011;25422;48.286;8.484;2023-04-06T11:20:54;6.50;;;4.22;;
39738;SDS011;25422;48.286;8.484;2023-04-06T11:23:25;7.25;;;4.45;;
39738;SDS011;25422;48.286;8.484;2023-04-06T11:25:52;5.85;;;4.35;;
39738;SDS011;25422;48.286;8.484;2023-04-06T11:28:18;4.88;;;4.25;;
39738;SDS011;25422;48.286;8.484;2023-04-06T11:30:44;6.72;;;4.30;;
39738;SDS011;25422;48.286;8.484;2023-04-06T11:33:10;5.00;;;4.07;;
39738;SDS011;25422;48.286;8.484;2023-04-06T11:35:35;5.78;;;4.22;;
39738;SDS011;25422;48.286;8.484;2023-04-06T11:38:02;4.80;;;4.00;;
39738;SDS011;25422;48.286;8.484;2023-04-06T11:40:28;6.30;;;4.40;;
39738;SDS011;25422;48.286;8.484;2023-04-06T11:42:55;6.05;;;4.63;;
39738;SDS011;25422;48.286;8.484;2023-04-06T11:45:21;5.22;;;3.97;;
39738;SDS011;25422;48.286;8.484;2023-04-06T11:47:55;5.78;;;4.10;;
39738;SDS011;25422;48.286;8.484;2023-04-06T11:50:24;8.52;;;4.22;;
39738;SDS011;25422;48.286;8.484;2023-04-06T11:52:57;4.78;;;3.70;;
39738;SDS011;25422;48.286;8.484;2023-04-06T11:55:27;5.45;;;4.15;;
39738;SDS011;25422;48.286;8.484;2023-04-06T11:57:53;5.88;;;4.13;;
39738;SDS011;25422;48.286;8.484;2023-04-06T12:00:20;6.57;;;4.50;;
39738;SDS011;25422;48.286;8.484;2023-04-06T12:02:46;6.75;;;4.40;;
39738;SDS011;25422;48.286;8.484;2023-04-06T12:05:12;24.25;;;12.30;;
39738;SDS011;25422;48.286;8.484;2023-04-06T12:07:37;8.40;;;5.72;;
39738;SDS011;25422;48.286;8.484;2023-04-06T12:10:03;6.32;;;4.10;;
39738;SDS011;25422;48.286;8.484;2023-04-06T12:12:28;6.82;;;4.35;;
39738;SDS011;25422;48.286;8.484;2023-04-06T12:14:55;5.45;;;4.13;;
39738;SDS011;25422;48.286;8.484;2023-04-06T12:17:20;6.15;;;4.82;;
39738;SDS011;25422;48.286;8.484;2023-04-06T12:19:46;6.45;;;4.60;;
39738;SDS011;25422;48.286;8.484;2023-04-06T12:22:11;6.50;;;4.82;;
39738;SDS011;25422;48.286;8.484;2023-04-06T12:24:37;5.45;;;4.28;;
39738;SDS011;25422;48.286;8.484;2023-04-06T12:27:02;8.02;;;4.55;;
39738;SDS011;25422;48.286;8.484;2023-04-06T12:29:28;5.00;;;4.50;;
39738;SDS011;25422;48.286;8.484;2023-04-06T12:31:53;6.20;;;4.80;;
39738;SDS011;25422;48.286;8.484;2023-04-06T12:34:19;6.07;;;4.57;;
39738;SDS011;25422;48.286;8.484;2023-04-06T12:36:44;5.55;;;4.40;;
39738;SDS011;25422;48.286;8.484;2023-04-06T12:39:09;8.50;;;4.95;;
39738;SDS011;25422;48.286;8.484;2023-04-06T12:41:37;5.32;;;4.35;;
39738;SDS011;25422;48.286;8.484;2023-04-06T12:44:06;6.22;;;4.88;;
39738;SDS011;25422;48.286;8.484;2023-04-06T12:46:31;6.75;;;5.00;;
39738;SDS011;25422;48.286;8.484;2023-04-06T12:48:57;7.47;;;5.47;;
39738;SDS011;25422;48.286;8.484;2023-04-06T12:51:24;6.30;;;5.35;;
39738;SDS011;25422;48.286;8.484;2023-04-06T12:53:52;4.70;;;4.00;;
39738;SDS011;25422;48.286;8.484;2023-04-06T12:56:18;6.90;;;4.60;;
39738;SDS011;25422;48.286;8.484;2023-04-06T12:58:43;6.20;;;4.53;;
39738;SDS011;25422;48.286;8.484;2023-04-06T13:01:10;7.80;;;5.15;;
39738;SDS011;25422;48.286;8.484;2023-04-06T13:03:37;7.63;;;5.20;;
39738;SDS011;25422;48.286;8.484;2023-04-06T13:06:03;6.07;;;4.00;;
39738;SDS011;25422;48.286;8.484;2023-04-06T13:08:29;7.82;;;5.13;;
39738;SDS011;25422;48.286;8.484;2023-04-06T13:10:54;7.90;;;5.85;;
39738;SDS011;25422;48.286;8.484;2023-04-06T13:13:23;7.10;;;5.25;;
39738;SDS011;25422;48.286;8.484;2023-04-06T13:15:50;4.95;;;4.22;;
39738;SDS011;25422;48.286;8.484;2023-04-06T13:18:20;6.32;;;4.78;;
39738;SDS011;25422;48.286;8.484;2023-04-06T13:20:46;7.03;;;4.93;;
39738;SDS011;25422;48.286;8.484;2023-04-06T13:23:12;7.05;;;5.00;;
39738;SDS011;25422;48.286;8.484;2023-04-06T13:25:38;7.95;;;5.63;;
39738;SDS011;25422;48.286;8.484;2023-04-06T13:28:03;8.30;;;5.60;;
39738;SDS011;25422;48.286;8.484;2023-04-06T13:30:28;7.45;;;5.10;;
39738;SDS011;25422;48.286;8.484;2023-04-06T13:32:54;7.50;;;5.43;;
39738;SDS011;25422;48.286;8.484;2023-04-06T13:35:20;9.32;;;5.85;;
39738;SDS011;25422;48.286;8.484;2023-04-06T13:37:45;7.47;;;5.18;;
39738;SDS011;25422;48.286;8.484;2023-04-06T13:40:11;8.05;;;5.22;;
39738;SDS011;25422;48.286;8.484;2023-04-06T13:42:36;7.35;;;5.00;;
39738;SDS011;25422;48.286;8.484;2023-04-06T13:45:05;8.05;;;5.10;;
39738;SDS011;25422;48.286;8.484;2023-04-06T13:47:30;11.00;;;5.97;;
39738;SDS011;25422;48.286;8.484;2023-04-06T13:49:56;8.68;;;5.30;;
39738;SDS011;25422;48.286;8.484;2023-04-06T13:52:22;6.97;;;4.57;;
39738;SDS011;25422;48.286;8.484;2023-04-06T13:54:48;7.47;;;4.82;;
39738;SDS011;25422;48.286;8.484;2023-04-06T13:57:14;7.70;;;4.85;;
39738;SDS011;25422;48.286;8.484;2023-04-06T13:59:40;4.82;;;4.07;;
39738;SDS011;25422;48.286;8.484;2023-04-06T14:02:06;6.57;;;4.28;;
39738;SDS011;25422;48.286;8.484;2023-04-06T14:04:33;4.47;;;3.45;;
39738;SDS011;25422;48.286;8.484;2023-04-06T14:07:00;5.28;;;3.10;;
39738;SDS011;25422;48.286;8.484;2023-04-06T14:09:26;2.97;;;2.60;;
39738;SDS011;25422;48.286;8.484;2023-04-06T14:11:53;4.88;;;3.20;;
39738;SDS011;25422;48.286;8.484;2023-04-06T14:14:22;6.07;;;3.33;;
39738;SDS011;25422;48.286;8.484;2023-04-06T14:16:48;5.18;;;3.70;;
39738;SDS011;25422;48.286;8.484;2023-04-06T14:19:15;4.50;;;2.90;;
39738;SDS011;25422;48.286;8.484;2023-04-06T14:21:42;3.50;;;2.53;;
39738;SDS011;25422;48.286;8.484;2023-04-06T14:24:11;3.90;;;2.75;;
39738;SDS011;25422;48.286;8.484;2023-04-06T14:26:38;6.15;;;2.92;;
39738;SDS011;25422;48.286;8.484;2023-04-06T14:29:04;4.05;;;3.17;;
39738;SDS011;25422;48.286;8.484;2023-04-06T14:31:31;5.22;;;3.50;;
39738;SDS011;25422;48.286;8.484;2023-04-06T14:34:00;7.95;;;3.40;;
39738;SDS011;25422;48.286;8.484;2023-04-06T14:36:32;4.03;;;3.10;;
39738;SDS011;25422;48.286;8.484;2023-04-06T14:39:03;6.47;;;3.40;;
39738;SDS011;25422;48.286;8.484;2023-04-06T14:41:32;4.57;;;3.65;;
39738;SDS011;25422;48.286;8.484;2023-04-06T14:43:58;6.47;;;4.10;;
39738;SDS011;25422;48.286;8.484;2023-04-06T14:46:24;4.93;;;3.35;;
39738;SDS011;25422;48.286;8.484;2023-04-06T14:48:50;4.65;;;2.88;;
39738;SDS011;25422;48.286;8.484;2023-04-06T14:51:16;7.53;;;3.38;;